createdAt,value
2022-09-04T00:01:49.260Z,4.95
2022-09-04T00:04:38.574Z,4.97
2022-09-04T00:07:25.744Z,6.88
2022-09-04T00:10:11.615Z,6.47
2022-09-04T00:12:54.823Z,6.43
2022-09-04T00:15:35.364Z,5.47
2022-09-04T00:18:30.642Z,5.70
2022-09-04T00:21:24.926Z,6.07
2022-09-04T00:23:59.764Z,5.30
2022-09-04T00:27:06.502Z,6.00
2022-09-04T00:30:04.720Z,7.45
2022-09-04T00:33:17.606Z,5.85
2022-09-04T00:35:56.109Z,5.88
2022-09-04T00:38:46.100Z,5.60
2022-09-04T00:41:43.876Z,7.32
2022-09-04T00:44:50.896Z,6.80
2022-09-04T00:47:58.003Z,5.25
2022-09-04T00:51:01.682Z,5.43
2022-09-04T00:53:53.927Z,6.68
2022-09-04T00:56:36.610Z,5.95
2022-09-04T00:59:31.007Z,6.13
2022-09-04T01:02:23.718Z,5.50
2022-09-04T01:05:47.458Z,5.72
2022-09-04T01:08:41.927Z,10.13
2022-09-04T01:12:17.951Z,8.50
2022-09-04T01:15:11.352Z,6.88
2022-09-04T01:18:05.074Z,5.20
2022-09-04T01:21:14.325Z,5.20
2022-09-04T01:24:08.122Z,7.07
2022-09-04T01:27:24.357Z,6.55
2022-09-04T01:30:17.459Z,7.63
2022-09-04T01:32:48.930Z,7.45
2022-09-04T01:36:03.825Z,6.05
2022-09-04T01:39:01.150Z,7.05
2022-09-04T01:41:40.066Z,6.35
2022-09-04T01:44:10.852Z,6.47
2022-09-04T01:47:20.461Z,7.32
2022-09-04T01:50:11.016Z,6.15
2022-09-04T01:53:12.962Z,6.82
2022-09-04T01:56:34.704Z,6.18
2022-09-04T01:59:37.147Z,6.15
2022-09-04T02:02:28.991Z,7.85
2022-09-04T02:05:13.705Z,7.72
2022-09-04T02:08:03.413Z,7.07
2022-09-04T02:11:15.925Z,7.35
2022-09-04T02:13:53.692Z,8.48
2022-09-04T02:16:57.218Z,6.15
2022-09-04T02:19:45.122Z,6.50
2022-09-04T02:22:50.045Z,6.88
2022-09-04T02:25:31.284Z,6.95
2022-09-04T02:28:21.665Z,7.40
2022-09-04T02:31:03.699Z,5.93
2022-09-04T02:33:49.590Z,6.70
2022-09-04T02:36:55.469Z,7.32
2022-09-04T02:39:34.504Z,7.88
2022-09-04T02:42:14.541Z,8.82
2022-09-04T02:45:14.829Z,6.55
2022-09-04T02:48:29.085Z,7.45
2022-09-04T02:51:13.860Z,6.03
2022-09-04T02:54:10.519Z,6.07
2022-09-04T02:57:47.743Z,5.93
2022-09-04T03:00:21.133Z,6.32
2022-09-04T03:02:48.435Z,6.00
2022-09-04T03:05:26.785Z,6.55
2022-09-04T03:08:08.906Z,7.35
2022-09-04T03:10:48.259Z,6.97
2022-09-04T03:13:57.385Z,7.95
2022-09-04T03:16:42.274Z,6.55
2022-09-04T03:19:53.456Z,9.55
2022-09-04T03:22:48.636Z,7.03
2022-09-04T03:25:52.181Z,6.93
2022-09-04T03:28:51.700Z,6.75
2022-09-04T03:31:55.392Z,7.38
2022-09-04T03:35:04.972Z,6.05
2022-09-04T03:37:58.292Z,7.30
2022-09-04T03:40:37.449Z,7.38
2022-09-04T03:43:31.551Z,7.75
2022-09-04T03:46:20.235Z,6.75
2022-09-04T03:49:12.925Z,7.32
2022-09-04T03:52:19.812Z,6.68
2022-09-04T03:55:33.496Z,6.18
2022-09-04T03:58:44.857Z,5.50
2022-09-04T04:01:37.965Z,5.93
2022-09-04T04:04:26.516Z,6.65
2022-09-04T04:07:47.931Z,8.07
2022-09-04T04:10:45.678Z,7.30
2022-09-04T04:13:27.054Z,6.25
2022-09-04T04:16:42.815Z,5.93
2022-09-04T04:19:15.748Z,6.15
2022-09-04T04:21:57.263Z,7.63
2022-09-04T04:25:03.083Z,6.75
2022-09-04T04:28:21.473Z,6.95
2022-09-04T04:30:54.551Z,6.68
2022-09-04T04:33:50.787Z,8.13
2022-09-04T04:36:51.819Z,6.45
2022-09-04T04:39:39.526Z,6.22
2022-09-04T04:42:31.287Z,6.00
2022-09-04T04:45:49.955Z,7.60
2022-09-04T04:48:51.317Z,6.22
2022-09-04T04:51:59.935Z,6.82
2022-09-04T04:55:21.482Z,6.13
2022-09-04T04:58:07.783Z,6.80
2022-09-04T05:00:46.456Z,7.32
2022-09-04T05:03:54.712Z,6.60
2022-09-04T05:06:38.242Z,7.20
2022-09-04T05:09:11.029Z,10.10
2022-09-04T05:12:22.524Z,11.10
2022-09-04T05:15:00.659Z,6.95
2022-09-04T05:17:56.533Z,7.85
2022-09-04T05:20:47.929Z,5.65
2022-09-04T05:23:29.445Z,5.45
2022-09-04T05:26:26.622Z,7.35
2022-09-04T05:29:13.455Z,6.35
2022-09-04T05:31:59.041Z,6.22
2022-09-04T05:35:08.325Z,5.22
2022-09-04T05:38:03.352Z,12.93
2022-09-04T05:41:01.211Z,7.57
2022-09-04T05:44:12.285Z,5.93
2022-09-04T05:47:07.417Z,5.75
2022-09-04T05:50:21.675Z,5.68
2022-09-04T05:53:09.579Z,5.28
2022-09-04T05:55:58.388Z,5.72
2022-09-04T05:59:00.585Z,6.07
2022-09-04T06:02:01.460Z,5.78
2022-09-04T06:05:01.026Z,5.13
2022-09-04T06:07:47.209Z,5.50
2022-09-04T06:10:50.137Z,5.68
2022-09-04T06:13:33.040Z,6.28
2022-09-04T06:16:27.254Z,5.13
2022-09-04T06:19:20.876Z,6.00
2022-09-04T06:22:14.353Z,5.78
2022-09-04T06:25:13.565Z,6.20
2022-09-04T06:28:17.713Z,5.95
2022-09-04T06:31:02.849Z,5.80
2022-09-04T06:33:38.830Z,6.00
2022-09-04T06:36:43.438Z,6.53
2022-09-04T06:39:16.338Z,6.07
2022-09-04T06:42:00.977Z,5.55
2022-09-04T06:44:55.040Z,7.43
2022-09-04T06:47:57.210Z,5.70
2022-09-04T06:50:46.908Z,5.47
2022-09-04T06:53:30.984Z,8.00
2022-09-04T06:56:32.560Z,5.50
2022-09-04T06:59:21.249Z,6.28
2022-09-04T07:02:38.454Z,5.38
2022-09-04T07:05:46.123Z,6.35
2022-09-04T07:08:43.125Z,5.57
2022-09-04T07:11:43.886Z,8.43
2022-09-04T07:14:20.128Z,6.53
2022-09-04T07:17:33.966Z,7.68
2022-09-04T07:20:46.817Z,8.20
2022-09-04T07:24:14.017Z,9.55
2022-09-04T07:27:03.102Z,8.20
2022-09-04T07:29:50.182Z,7.13
2022-09-04T07:33:03.734Z,5.88
2022-09-04T07:36:07.981Z,6.93
2022-09-04T07:38:50.684Z,5.32
2022-09-04T07:41:28.279Z,7.63
2022-09-04T07:44:23.393Z,5.85
2022-09-04T07:47:38.257Z,5.85
2022-09-04T07:50:25.086Z,4.57
2022-09-04T07:53:36.551Z,6.07
2022-09-04T07:56:27.885Z,4.75
2022-09-04T07:59:51.840Z,6.53
2022-09-04T08:02:42.528Z,4.40
2022-09-04T08:05:31.867Z,6.00
2022-09-04T08:08:49.275Z,4.57
2022-09-04T08:12:18.446Z,3.97
2022-09-04T08:14:53.996Z,3.60
2022-09-04T08:17:49.306Z,4.43
2022-09-04T08:20:59.450Z,3.80
2022-09-04T08:24:10.237Z,3.95
2022-09-04T08:27:09.719Z,3.85
2022-09-04T08:29:45.522Z,3.60
2022-09-04T08:32:41.436Z,3.08
2022-09-04T08:35:35.480Z,3.50
2022-09-04T08:38:55.493Z,3.05
2022-09-04T08:41:41.639Z,2.35
2022-09-04T08:44:31.071Z,3.13
2022-09-04T08:47:19.154Z,4.78
2022-09-04T08:50:06.954Z,2.22
2022-09-04T08:53:29.006Z,2.35
2022-09-04T08:57:05.806Z,2.95
2022-09-04T09:00:12.609Z,2.83
2022-09-04T09:03:29.570Z,4.10
2022-09-04T09:06:31.194Z,2.40
2022-09-04T09:09:19.531Z,2.13
2022-09-04T09:12:40.865Z,2.28
2022-09-04T09:15:34.088Z,3.85
2022-09-04T09:18:54.928Z,3.15
2022-09-04T09:21:57.328Z,2.70
2022-09-04T09:24:48.666Z,3.28
2022-09-04T09:27:35.198Z,3.17
2022-09-04T09:30:24.393Z,2.78
2022-09-04T09:33:27.314Z,2.28
2022-09-04T09:36:16.129Z,3.13
2022-09-04T09:39:43.049Z,3.30
2022-09-04T09:42:22.060Z,2.90
2022-09-04T09:45:23.162Z,2.85
2022-09-04T09:48:06.799Z,2.80
2022-09-04T09:51:16.095Z,2.83
2022-09-04T09:54:13.418Z,3.17
2022-09-04T09:56:59.072Z,3.00
2022-09-04T09:59:50.536Z,2.78
2022-09-04T10:03:24.607Z,3.28
2022-09-04T10:06:46.056Z,3.08
2022-09-04T10:09:52.495Z,4.88
2022-09-04T10:12:50.997Z,2.88
2022-09-04T10:15:46.528Z,3.97
2022-09-04T10:18:32.892Z,3.13
2022-09-04T10:21:48.025Z,3.50
2022-09-04T10:24:57.477Z,4.00
2022-09-04T10:27:58.258Z,3.63
2022-09-04T10:30:42.209Z,2.88
2022-09-04T10:33:21.462Z,3.50
2022-09-04T10:36:10.008Z,3.17
2022-09-04T10:39:21.486Z,3.78
2022-09-04T10:42:17.288Z,2.22
2022-09-04T10:45:15.777Z,2.55
2022-09-04T10:48:05.022Z,2.97
2022-09-04T10:51:23.195Z,5.03
2022-09-04T10:54:07.885Z,2.72
2022-09-04T10:57:08.013Z,2.42
2022-09-04T11:00:03.288Z,4.88
2022-09-04T11:02:56.282Z,2.55
2022-09-04T11:05:33.194Z,2.35
2022-09-04T11:08:12.933Z,2.83
2022-09-04T11:11:19.163Z,2.60
2022-09-04T11:14:10.380Z,3.67
2022-09-04T11:17:13.519Z,2.63
2022-09-04T11:20:03.799Z,3.35
2022-09-04T11:23:32.219Z,4.22
2022-09-04T11:26:39.290Z,4.00
2022-09-04T11:29:41.079Z,6.05
2022-09-04T11:32:13.917Z,3.33
2022-09-04T11:35:06.795Z,2.40
2022-09-04T11:37:46.472Z,2.75
2022-09-04T11:40:32.258Z,3.70
2022-09-04T11:43:55.094Z,3.35
2022-09-04T11:46:47.456Z,3.60
2022-09-04T11:49:53.644Z,2.80
2022-09-04T11:52:41.622Z,2.83
2022-09-04T11:55:29.416Z,3.00
2022-09-04T11:58:20.777Z,3.95
2022-09-04T12:01:17.405Z,3.35
2022-09-04T12:03:49.441Z,2.95
2022-09-04T12:07:06.880Z,4.03
2022-09-04T12:10:19.777Z,4.57
2022-09-04T12:13:15.460Z,2.30
2022-09-04T12:16:27.063Z,3.45
2022-09-04T12:19:42.299Z,2.85
2022-09-04T12:22:54.506Z,2.42
2022-09-04T12:26:03.102Z,2.78
2022-09-04T12:28:58.734Z,2.80
2022-09-04T12:32:07.062Z,4.07
2022-09-04T12:35:17.189Z,3.08
2022-09-04T12:38:17.920Z,3.83
2022-09-04T12:41:08.748Z,3.38
2022-09-04T12:43:53.862Z,3.15
2022-09-04T12:46:50.231Z,2.92
2022-09-04T12:49:43.864Z,2.58
2022-09-04T12:52:35.187Z,2.67
2022-09-04T12:55:52.607Z,3.40
2022-09-04T12:59:02.771Z,2.65
2022-09-04T13:01:55.098Z,2.47
2022-09-04T13:04:45.454Z,1.83
2022-09-04T13:07:33.895Z,2.17
2022-09-04T13:10:19.329Z,1.75
2022-09-04T13:13:10.586Z,1.73
2022-09-04T13:16:17.553Z,1.98
2022-09-04T13:19:00.411Z,2.70
2022-09-04T13:21:36.357Z,1.70
2022-09-04T13:24:16.005Z,4.45
2022-09-04T13:27:00.661Z,2.63
2022-09-04T13:30:05.530Z,1.63
2022-09-04T13:33:12.699Z,1.95
2022-09-04T13:35:51.605Z,1.73
2022-09-04T13:38:55.310Z,3.17
2022-09-04T13:41:24.999Z,1.85
2022-09-04T13:44:40.806Z,2.40
2022-09-04T13:47:35.469Z,1.38
2022-09-04T13:50:19.305Z,1.30
2022-09-04T13:53:00.484Z,1.63
2022-09-04T13:55:39.130Z,2.30
2022-09-04T13:58:20.493Z,1.42
2022-09-04T14:00:52.598Z,2.40
2022-09-04T14:03:34.647Z,1.88
2022-09-04T14:06:05.480Z,1.60
2022-09-04T14:08:34.518Z,1.05
2022-09-04T14:11:15.724Z,2.30
2022-09-04T14:13:51.908Z,1.33
2022-09-04T14:16:19.685Z,1.10
2022-09-04T14:19:31.110Z,2.08
2022-09-04T14:22:25.986Z,1.05
2022-09-04T14:25:15.781Z,1.42
2022-09-04T14:28:06.137Z,1.17
2022-09-04T14:31:15.810Z,1.10
2022-09-04T14:34:16.067Z,1.05
2022-09-04T14:37:48.271Z,2.25
2022-09-04T14:40:29.887Z,1.58
2022-09-04T14:43:22.390Z,2.10
2022-09-04T14:46:06.638Z,1.17
2022-09-04T14:48:40.530Z,0.77
2022-09-04T14:51:31.310Z,1.08
2022-09-04T14:54:01.979Z,1.27
2022-09-04T14:56:43.638Z,0.75
2022-09-04T14:59:38.904Z,1.02
2022-09-04T15:02:08.505Z,2.10
2022-09-04T15:05:17.833Z,0.50
2022-09-04T15:07:44.555Z,1.67
2022-09-04T15:10:53.697Z,0.95
2022-09-04T15:13:47.467Z,1.23
2022-09-04T15:16:29.319Z,1.45
2022-09-04T15:19:21.389Z,0.60
2022-09-04T15:22:04.479Z,0.60
2022-09-04T15:24:47.524Z,1.00
2022-09-04T15:27:28.499Z,0.70
2022-09-04T15:30:03.430Z,0.68
2022-09-04T15:32:36.711Z,0.60
2022-09-04T15:35:32.722Z,0.88
2022-09-04T15:38:27.471Z,1.60
2022-09-04T15:41:16.686Z,0.90
2022-09-04T15:44:29.742Z,1.30
2022-09-04T15:47:18.710Z,0.70
2022-09-04T15:50:02.268Z,0.50
2022-09-04T15:52:43.321Z,1.73
2022-09-04T15:55:35.718Z,1.40
2022-09-04T15:58:32.944Z,1.17
2022-09-04T16:01:40.372Z,0.57
2022-09-04T16:04:23.326Z,1.23
2022-09-04T16:07:20.530Z,0.90
2022-09-04T16:09:59.014Z,1.48
2022-09-04T16:12:35.405Z,1.52
2022-09-04T16:15:17.551Z,2.75
2022-09-04T16:17:55.724Z,1.08
2022-09-04T16:20:51.260Z,1.65
2022-09-04T16:23:28.607Z,0.90
2022-09-04T16:25:58.168Z,1.98
2022-09-04T16:28:31.167Z,2.15
2022-09-04T16:31:03.690Z,1.00
2022-09-04T16:33:37.941Z,1.95
2022-09-04T16:36:11.509Z,1.13
2022-09-04T16:38:48.613Z,1.95
2022-09-04T16:41:38.794Z,2.33
2022-09-04T16:44:22.092Z,2.15
2022-09-04T16:47:31.643Z,1.75
2022-09-04T16:50:15.609Z,2.25
2022-09-04T16:52:54.941Z,1.40
2022-09-04T16:56:07.261Z,3.17
2022-09-04T16:58:40.026Z,1.05
2022-09-04T17:01:27.403Z,4.28
2022-09-04T17:04:14.262Z,0.93
2022-09-04T17:07:02.754Z,1.10
2022-09-04T17:09:51.242Z,1.08
2022-09-04T17:13:02.865Z,1.40
2022-09-04T17:15:55.405Z,1.10
2022-09-04T17:18:29.673Z,1.70
2022-09-04T17:26:42.589Z,0.93
2022-09-04T17:28:58.917Z,2.15
2022-09-04T17:29:11.491Z,0.93
2022-09-04T17:30:44.157Z,1.17
2022-09-04T17:40:00.499Z,1.17
2022-09-04T17:40:39.027Z,1.67
2022-09-04T17:40:49.128Z,2.08
2022-09-04T17:43:22.217Z,1.05
2022-09-04T17:45:51.396Z,1.92
2022-09-04T17:48:45.856Z,1.48
2022-09-04T17:51:27.555Z,2.13
2022-09-04T17:54:02.461Z,1.58
2022-09-04T17:56:43.519Z,1.52
2022-09-04T17:59:57.961Z,1.13
2022-09-04T18:02:48.576Z,0.82
2022-09-04T18:05:25.367Z,1.63
2022-09-04T18:08:16.402Z,1.30
2022-09-04T18:11:17.887Z,1.38
2022-09-04T18:14:23.004Z,1.88
2022-09-04T18:17:12.631Z,1.88
2022-09-04T18:19:51.103Z,1.73
2022-09-04T18:22:57.459Z,0.85
2022-09-04T18:25:50.782Z,1.00
2022-09-04T18:28:55.206Z,2.05
2022-09-04T18:37:09.235Z,1.35
2022-09-04T18:37:21.501Z,2.33
2022-09-04T18:37:47.330Z,1.42
2022-09-04T18:40:43.160Z,1.88
2022-09-04T18:50:23.722Z,2.17
2022-09-04T18:50:29.206Z,1.25
2022-09-04T18:50:31.685Z,1.20
2022-09-04T18:52:50.249Z,3.33
2022-09-04T18:55:24.353Z,1.80
2022-09-04T18:58:11.024Z,1.27
2022-09-04T19:00:57.684Z,1.45
2022-09-04T19:03:57.020Z,2.60
2022-09-04T19:06:36.574Z,2.85
2022-09-04T19:09:19.749Z,1.95
2022-09-04T19:11:57.414Z,2.15
2022-09-04T19:14:35.186Z,2.35
2022-09-04T19:17:24.553Z,3.40
2022-09-04T19:20:06.650Z,2.05
2022-09-04T19:22:47.590Z,2.55
2022-09-04T19:25:28.165Z,1.70
2022-09-04T19:27:57.303Z,1.67
2022-09-04T19:30:55.338Z,2.33
2022-09-04T19:33:57.806Z,1.95
2022-09-04T19:36:45.391Z,3.13
2022-09-04T19:45:57.035Z,3.85
2022-09-04T19:46:03.258Z,3.20
2022-09-04T19:46:18.032Z,2.53
2022-09-04T19:50:32.770Z,2.28
2022-09-04T19:53:32.085Z,2.63
2022-09-04T19:55:35.424Z,3.10
2022-09-04T19:58:20.337Z,2.42
2022-09-04T20:01:03.208Z,3.70
2022-09-04T20:03:48.551Z,3.63
2022-09-04T20:06:51.581Z,2.42
2022-09-04T20:09:49.546Z,2.45
2022-09-04T20:12:31.211Z,3.00
2022-09-04T20:15:12.683Z,3.22
2022-09-04T20:17:51.698Z,5.93
2022-09-04T20:20:32.261Z,2.80
2022-09-04T20:23:30.978Z,2.90
2022-09-04T20:26:10.950Z,2.50
2022-09-04T20:29:15.463Z,2.70
2022-09-04T20:32:22.341Z,2.60
2022-09-04T20:35:13.147Z,4.40
2022-09-04T20:37:53.411Z,2.85
2022-09-04T20:40:40.113Z,2.88
2022-09-04T20:43:26.779Z,2.95
2022-09-04T20:52:40.478Z,4.30
2022-09-04T20:52:59.849Z,2.90
2022-09-04T20:53:05.396Z,3.97
2022-09-04T20:55:33.605Z,3.40
2022-09-04T21:03:11.377Z,4.15
2022-09-04T21:03:19.860Z,2.35
2022-09-04T21:04:42.790Z,4.15
2022-09-04T21:07:27.111Z,3.28
2022-09-04T21:10:34.505Z,3.42
2022-09-04T21:13:22.586Z,4.25
2022-09-04T21:16:05.233Z,5.07
2022-09-04T21:19:28.074Z,3.85
2022-09-04T21:22:33.167Z,4.00
2022-09-04T21:25:56.065Z,4.13
2022-09-04T21:28:45.541Z,4.80
2022-09-04T21:31:53.555Z,4.40
2022-09-04T21:34:43.752Z,4.50
2022-09-04T21:37:40.806Z,3.20
2022-09-04T21:40:51.621Z,4.75
2022-09-04T21:43:22.171Z,3.88
2022-09-04T21:46:30.474Z,4.05
2022-09-04T21:49:26.229Z,3.72
2022-09-04T21:52:31.552Z,3.65
2022-09-04T21:56:49.401Z,4.30
2022-09-04T22:02:27.157Z,3.17
2022-09-04T22:02:48.752Z,3.33
2022-09-04T22:05:19.246Z,4.20
2022-09-04T22:11:08.830Z,4.40
2022-09-04T22:13:42.208Z,4.57
2022-09-04T22:13:51.467Z,4.03
2022-09-04T22:16:47.951Z,5.53
2022-09-04T22:19:33.475Z,4.35
2022-09-04T22:22:31.113Z,3.33
2022-09-04T22:25:36.431Z,3.53
2022-09-04T22:28:18.371Z,3.90
2022-09-04T22:31:29.190Z,3.45
2022-09-04T22:34:54.723Z,3.40
2022-09-04T22:37:47.604Z,3.47
2022-09-04T22:40:56.519Z,3.38
2022-09-04T22:43:26.939Z,3.47
2022-09-04T22:46:37.733Z,5.45
2022-09-04T22:49:41.656Z,5.15
2022-09-04T22:53:00.561Z,3.63
2022-09-04T22:56:22.869Z,5.22
2022-09-04T22:59:27.000Z,4.32
2022-09-04T23:02:30.680Z,5.43
2022-09-04T23:05:54.173Z,3.95
2022-09-04T23:13:47.318Z,6.10
2022-09-04T23:14:00.922Z,4.07
2022-09-04T23:15:59.245Z,4.13
2022-09-04T23:26:31.102Z,4.65
2022-09-04T23:26:44.646Z,5.05
2022-09-04T23:26:45.335Z,4.55
2022-09-04T23:28:53.552Z,3.60
2022-09-04T23:31:37.581Z,4.00
2022-09-04T23:34:29.453Z,3.90
2022-09-04T23:37:26.828Z,5.38
2022-09-04T23:40:37.723Z,5.22
2022-09-04T23:44:07.571Z,4.55
2022-09-04T23:47:05.983Z,5.07
2022-09-04T23:49:58.185Z,3.22
2022-09-04T23:52:48.569Z,5.03
2022-09-04T23:55:41.442Z,5.53
2022-09-04T23:59:21.182Z,3.40
